Etusivu
METAR-TAF:

METAR-TAF

Lentoasemat :

Uherské Hradiště, Tšekki

Leveyspiiri: 49-01-46N, Pituuspiiri: 017-26-23E, korkeus merenpinnasta: 177 m

Tämänhetkinen sää

Tämä raportti tehtiin 51 minuuttia sitten, kello 10.00 UTC
Tuuli 3 kn pohjoisesta/koillisesta
Lämpötila 27°C
Kosteus 45%
Ilmanpaine 1009 hPa
Näkyvyys 10 km tai enemmän
Muutamia pilviä 4800 ft:n korkeudessa

METAR: LKKU 211000Z 02003KT 9999 FEW048 27/14 Q1009

Aika: 12:51 (10:51 UTC)


TAF: puuttuu

Säähavainnot ja -ennusteet yli 4000 lentoasemalta (METAR- ja TAF-raportit).

Käytössä olevat sääasemat on merkitty karttaan keltaisilla ja punaisilla pisteillä.

Aseta hiiri pisteen päälle nähdäksesi sääaseman nimen.

Klikkaa sitten nähdäksesi säähavainnot ja -ennusteet.

Kartan vaihtaminen: klikkaa mustalla rastilla varustettuja vihreitä pisteitä, niin voit zoomata sisään; viivalla varustettua vihreää pistettä, niin voit zoomata ulos tai vihreitä nuolia, niin pääset viereisille kartoille.


METAR-TAF: